Time;durP1;ratioP1;P1;durP2;ratioP2;P2;SDS_P1;SDS_P2;PMS_P1;PMS_P2;Temp;Humidity;BMP_temperature;BMP_pressure;BME280_temperature;BME280_humidity;BME280_pressure;Samples;Min_cycle;Max_cycle;Signal;HPM_P1;HPM_P2
2023/03/30 03:02:32;;;;;;;8.77;3.67;;;12.40;99.90;;;;;;6239993;22;20020;-78
2023/03/30 03:05:02;;;;;;;12.73;4.10;;;12.30;99.90;;;;;;6246160;23;20047;-79
2023/03/30 03:07:32;;;;;;;10.52;3.60;;;12.40;99.90;;;;;;6218958;23;20008;-78
2023/03/30 03:09:58;;;;;;;8.10;2.75;;;12.40;99.90;;;;;;6246163;23;20070;-77
2023/03/30 03:12:25;;;;;;;8.30;2.97;;;12.40;99.90;;;;;;6218443;23;20014;-77
2023/03/30 03:14:51;;;;;;;8.23;3.05;;;12.40;99.90;;;;;;6218571;23;20008;-78
2023/03/30 03:17:21;;;;;;;10.23;3.00;;;12.40;99.90;;;;;;6219967;23;20070;-78
2023/03/30 03:19:47;;;;;;;9.82;3.13;;;12.50;99.90;;;;;;6247281;23;20449;-79
2023/03/30 03:22:13;;;;;;;9.45;2.90;;;12.50;99.90;;;;;;6220454;23;20012;-78
2023/03/30 03:24:39;;;;;;;8.38;2.70;;;12.50;99.90;;;;;;6220285;23;20079;-78
2023/03/30 03:27:05;;;;;;;7.25;2.35;;;12.50;99.90;;;;;;6247381;23;20012;-79
2023/03/30 03:29:31;;;;;;;9.63;2.60;;;12.50;99.90;;;;;;6220221;23;20057;-77
2023/03/30 03:31:57;;;;;;;5.07;2.20;;;12.50;99.90;;;;;;6195286;23;20016;-79
2023/03/30 03:34:25;;;;;;;5.95;2.10;;;12.50;99.90;;;;;;6247416;23;20015;-77
2023/03/30 03:36:53;;;;;;;7.88;2.85;;;12.50;99.90;;;;;;6247105;23;20016;-78
2023/03/30 03:39:19;;;;;;;10.95;2.28;;;12.50;99.90;;;;;;6247111;23;20008;-77
2023/03/30 03:41:45;;;;;;;6.93;2.17;;;12.50;99.90;;;;;;6247083;22;20531;-77
2023/03/30 03:44:10;;;;;;;7.13;2.65;;;12.50;99.90;;;;;;6220865;23;20019;-79
2023/03/30 03:46:36;;;;;;;7.03;2.63;;;12.50;99.90;;;;;;6220368;23;20016;-77
2023/03/30 03:49:02;;;;;;;11.23;2.88;;;12.50;99.90;;;;;;6220182;23;20012;-78
2023/03/30 03:51:28;;;;;;;7.03;2.63;;;12.50;99.90;;;;;;6220199;23;20023;-78
2023/03/30 03:53:54;;;;;;;8.05;2.83;;;12.50;99.90;;;;;;6220136;23;20011;-78
2023/03/30 03:56:20;;;;;;;6.40;2.85;;;12.50;99.90;;;;;;6220083;23;20016;-77
2023/03/30 03:58:46;;;;;;;10.25;2.90;;;12.50;99.90;;;;;;6247482;23;20054;-78
2023/03/30 04:01:13;;;;;;;7.63;2.88;;;12.50;99.90;;;;;;6246751;22;20066;-77
2023/03/30 04:03:40;;;;;;;8.32;2.63;;;12.50;99.90;;;;;;6219921;23;20016;-78
2023/03/30 04:06:06;;;;;;;7.63;3.05;;;12.50;99.90;;;;;;6219768;23;20016;-78
2023/03/30 04:08:32;;;;;;;10.90;2.92;;;12.50;99.90;;;;;;6220026;23;20019;-78
2023/03/30 04:11:10;;;;;;;8.10;2.58;;;12.50;99.90;;;;;;6219879;23;20020;-78
2023/03/30 04:13:39;;;;;;;10.13;2.80;;;12.50;99.90;;;;;;6220124;23;20339;-78
2023/03/30 04:16:07;;;;;;;7.88;2.40;;;12.50;99.90;;;;;;6247125;23;20327;-78
2023/03/30 04:18:34;;;;;;;6.40;2.25;;;12.60;99.90;;;;;;6219875;23;20338;-76
2023/03/30 04:21:03;;;;;;;8.90;2.67;;;12.60;99.90;;;;;;6220393;23;20054;-76
2023/03/30 04:23:33;;;;;;;5.03;2.25;;;12.60;99.90;;;;;;6219871;23;20023;-78
2023/03/30 04:26:00;;;;;;;9.10;2.88;;;12.60;99.90;;;;;;6221312;23;20021;-78
2023/03/30 04:28:31;;;;;;;8.82;2.40;;;12.70;99.90;;;;;;6220123;23;20012;-77
2023/03/30 04:31:02;;;;;;;9.25;2.28;;;12.60;99.90;;;;;;6219781;23;20019;-78
2023/03/30 04:33:28;;;;;;;6.85;2.60;;;12.70;99.90;;;;;;6246998;23;20048;-78
2023/03/30 04:35:54;;;;;;;9.27;2.50;;;12.60;99.90;;;;;;6246742;23;20065;-78
2023/03/30 04:38:23;;;;;;;11.50;2.22;;;12.60;99.90;;;;;;6247266;23;20004;-77
2023/03/30 04:40:50;;;;;;;11.07;2.45;;;12.60;99.90;;;;;;6219291;23;20437;-77
2023/03/30 04:43:20;;;;;;;7.55;2.72;;;12.70;99.90;;;;;;6219855;23;20514;-79
2023/03/30 04:45:49;;;;;;;7.25;2.40;;;12.60;99.90;;;;;;6246556;23;20511;-78
2023/03/30 04:48:15;;;;;;;14.52;2.90;;;12.60;99.90;;;;;;6194954;23;20020;-76
2023/03/30 04:50:42;;;;;;;12.88;3.63;;;12.60;99.90;;;;;;6220285;23;20514;-78
2023/03/30 04:53:09;;;;;;;12.77;2.63;;;12.50;99.90;;;;;;6219670;23;20082;-79
2023/03/30 04:55:35;;;;;;;12.13;3.20;;;12.50;99.90;;;;;;6220249;23;20016;-78
2023/03/30 04:58:01;;;;;;;8.50;3.10;;;12.40;99.90;;;;;;6246750;23;20050;-78
2023/03/30 05:00:26;;;;;;;12.23;3.78;;;12.40;99.90;;;;;;6246192;22;20433;-77
2023/03/30 05:02:52;;;;;;;9.38;3.00;;;12.30;99.90;;;;;;6194640;23;20020;-79
2023/03/30 05:05:18;;;;;;;15.73;3.33;;;12.30;99.90;;;;;;6246457;23;20064;-77
2023/03/30 05:07:43;;;;;;;11.77;3.00;;;12.20;99.90;;;;;;6246570;23;20362;-78
2023/03/30 05:10:09;;;;;;;10.55;3.30;;;12.20;99.90;;;;;;6246273;23;20008;-78
2023/03/30 05:12:35;;;;;;;12.35;3.72;;;12.10;99.90;;;;;;6219311;23;20020;-80
2023/03/30 05:15:00;;;;;;;14.98;3.80;;;12.10;99.90;;;;;;6219401;23;20018;-79
2023/03/30 05:17:26;;;;;;;11.38;4.40;;;12.10;99.90;;;;;;6219340;23;20016;-76
2023/03/30 05:19:52;;;;;;;12.70;3.70;;;12.10;99.90;;;;;;6219541;23;20039;-77
2023/03/30 05:22:18;;;;;;;13.25;3.85;;;12.00;99.90;;;;;;6219488;23;20016;-80
2023/03/30 05:24:43;;;;;;;13.07;3.50;;;12.00;99.90;;;;;;6219167;23;20064;-77
2023/03/30 05:27:09;;;;;;;14.00;4.05;;;12.10;99.90;;;;;;6245898;23;20012;-78
2023/03/30 05:29:35;;;;;;;13.30;4.43;;;12.00;99.90;;;;;;6219358;23;20023;-77
2023/03/30 05:32:01;;;;;;;9.73;3.78;;;12.00;99.90;;;;;;6218712;23;20158;-78
2023/03/30 05:34:26;;;;;;;13.95;4.22;;;12.00;99.90;;;;;;6193854;23;20095;-78
2023/03/30 05:36:52;;;;;;;8.93;4.13;;;12.10;99.90;;;;;;6246290;23;20012;-77
2023/03/30 05:39:19;;;;;;;11.68;3.83;;;12.10;99.90;;;;;;6219244;23;20026;-80
2023/03/30 05:41:45;;;;;;;11.13;3.60;;;12.00;99.90;;;;;;6219407;23;20039;-78
2023/03/30 05:44:11;;;;;;;12.50;4.03;;;12.10;99.90;;;;;;6246569;23;20008;-80
2023/03/30 05:46:36;;;;;;;10.57;3.75;;;12.10;99.90;;;;;;6219755;23;20138;-81
2023/03/30 05:49:02;;;;;;;14.23;3.80;;;12.20;99.90;;;;;;6219511;23;20189;-78
2023/03/30 05:51:28;;;;;;;10.40;4.57;;;12.10;99.90;;;;;;6219261;23;20409;-78
2023/03/30 05:53:53;;;;;;;11.60;3.45;;;12.20;99.90;;;;;;6219152;23;20035;-78
2023/03/30 05:56:19;;;;;;;11.52;3.35;;;12.20;99.90;;;;;;6219323;23;20019;-79
2023/03/30 05:58:45;;;;;;;8.02;3.40;;;12.20;99.90;;;;;;6246968;23;20022;-78
2023/03/30 06:01:12;;;;;;;11.25;3.70;;;12.30;99.90;;;;;;6218898;23;20346;-76
2023/03/30 06:03:38;;;;;;;9.50;3.83;;;12.30;99.90;;;;;;6246716;23;20434;-79
2023/03/30 06:06:05;;;;;;;10.98;3.30;;;12.40;99.90;;;;;;6219098;23;20012;-79
2023/03/30 06:08:31;;;;;;;7.55;3.50;;;12.30;99.90;;;;;;6219418;23;20012;-80
2023/03/30 06:10:57;;;;;;;12.38;2.83;;;12.40;99.90;;;;;;6246332;22;20012;-78
2023/03/30 06:13:23;;;;;;;10.77;3.83;;;12.40;99.90;;;;;;6218918;23;20023;-78
2023/03/30 06:15:48;;;;;;;8.43;3.35;;;12.40;99.90;;;;;;6193866;23;20338;-79
2023/03/30 06:18:14;;;;;;;8.43;3.35;;;12.40;99.90;;;;;;6245945;23;20008;-79
2023/03/30 06:20:40;;;;;;;11.63;3.80;;;12.40;99.90;;;;;;6218717;23;20027;-79
2023/03/30 06:23:05;;;;;;;10.82;3.35;;;12.40;99.90;;;;;;6219862;23;20019;-80
2023/03/30 06:25:31;;;;;;;10.80;3.33;;;12.40;99.90;;;;;;6245701;23;20016;-79
2023/03/30 06:27:57;;;;;;;10.00;3.03;;;12.40;99.90;;;;;;6245873;23;20115;-79
2023/03/30 06:30:22;;;;;;;7.68;3.20;;;12.40;99.90;;;;;;6218786;22;20008;-79
2023/03/30 06:32:48;;;;;;;16.42;3.85;;;12.40;99.90;;;;;;6218705;23;20020;-79
2023/03/30 06:35:14;;;;;;;15.05;3.60;;;12.50;99.90;;;;;;6218932;23;20027;-78
2023/03/30 06:37:41;;;;;;;13.25;3.50;;;12.50;99.90;;;;;;6219399;23;20012;-79
2023/03/30 06:40:14;;;;;;;12.38;2.50;;;12.40;99.90;;;;;;6219252;23;20341;-79
2023/03/30 06:42:41;;;;;;;12.00;2.92;;;12.50;99.90;;;;;;6219252;23;20043;-79
2023/03/30 06:45:07;;;;;;;18.33;3.20;;;12.50;99.90;;;;;;6246123;23;20333;-80
2023/03/30 06:47:33;;;;;;;14.77;3.03;;;12.50;99.90;;;;;;6246323;23;20023;-80
2023/03/30 06:49:58;;;;;;;12.50;2.65;;;12.50;99.90;;;;;;6219655;23;20016;-79
2023/03/30 06:52:24;;;;;;;11.70;3.00;;;12.50;99.90;;;;;;6195772;23;20026;-79
2023/03/30 06:54:50;;;;;;;17.33;2.50;;;12.50;99.90;;;;;;6247794;23;20083;-80
2023/03/30 06:57:15;;;;;;;16.25;3.63;;;12.50;99.90;;;;;;6221864;23;20016;-78
2023/03/30 06:59:41;;;;;;;17.85;3.75;;;12.50;99.90;;;;;;6247717;23;20004;-78
2023/03/30 07:02:12;;;;;;;16.75;3.70;;;12.50;99.90;;;;;;6220857;23;20012;-78
2023/03/30 07:04:38;;;;;;;19.25;4.07;;;12.50;99.90;;;;;;6220995;23;20421;-79
2023/03/30 07:07:03;;;;;;;15.48;3.70;;;12.50;99.90;;;;;;6220673;23;20012;-78
2023/03/30 07:09:29;;;;;;;20.15;3.85;;;12.50;99.90;;;;;;6220742;23;20105;-79
2023/03/30 07:11:55;;;;;;;13.50;3.20;;;12.50;99.90;;;;;;6220962;23;20513;-78
2023/03/30 07:14:21;;;;;;;21.17;3.50;;;12.40;99.90;;;;;;6247725;23;20353;-78
2023/03/30 07:16:47;;;;;;;16.95;3.63;;;12.40;99.90;;;;;;6220814;23;20072;-78
2023/03/30 07:19:13;;;;;;;19.05;3.10;;;12.50;99.90;;;;;;6220938;23;20039;-78
2023/03/30 07:21:39;;;;;;;15.40;3.33;;;12.40;99.90;;;;;;6221098;23;20012;-78
2023/03/30 07:24:06;;;;;;;17.38;3.35;;;12.40;99.90;;;;;;6221867;23;20027;-78
2023/03/30 07:26:33;;;;;;;16.13;3.83;;;12.40;99.90;;;;;;6221130;23;20016;-78
2023/03/30 07:29:00;;;;;;;14.60;2.63;;;12.40;99.90;;;;;;6221448;23;20350;-79
2023/03/30 07:31:26;;;;;;;19.02;3.80;;;12.40;99.90;;;;;;6221972;23;20047;-77
2023/03/30 07:33:51;;;;;;;22.80;4.35;;;12.30;99.90;;;;;;6220803;23;20022;-80
2023/03/30 07:36:18;;;;;;;17.27;4.30;;;12.30;99.90;;;;;;6221254;23;20047;-79
2023/03/30 07:38:45;;;;;;;23.70;3.95;;;12.30;99.90;;;;;;6221183;23;20383;-78
2023/03/30 07:41:12;;;;;;;22.25;3.70;;;12.30;99.90;;;;;;6247933;22;20079;-79
2023/03/30 07:43:41;;;;;;;23.25;3.85;;;12.20;99.90;;;;;;6220893;23;20012;-80
2023/03/30 07:46:10;;;;;;;23.23;4.00;;;12.30;99.90;;;;;;6220582;23;20020;-78
2023/03/30 07:48:37;;;;;;;26.70;4.25;;;12.30;99.90;;;;;;6221185;23;20018;-78
2023/03/30 07:51:05;;;;;;;31.35;3.83;;;12.30;99.90;;;;;;6221164;23;20027;-78
2023/03/30 07:53:32;;;;;;;19.00;4.10;;;12.20;99.90;;;;;;6220890;23;20050;-79
2023/03/30 07:55:58;;;;;;;12.85;3.10;;;12.10;99.90;;;;;;6247959;23;20015;-78
2023/03/30 07:58:25;;;;;;;27.85;4.68;;;12.10;99.90;;;;;;6221189;23;20019;-79
2023/03/30 08:00:52;;;;;;;23.83;3.88;;;12.10;99.90;;;;;;6221452;23;20008;-75
2023/03/30 08:03:20;;;;;;;26.27;4.47;;;12.10;99.90;;;;;;6232489;23;20008;-78
2023/03/30 08:05:59;;;;;;;24.45;4.07;;;12.10;99.90;;;;;;6236329;23;20064;-79
2023/03/30 08:08:26;;;;;;;16.63;2.97;;;12.10;99.90;;;;;;6260284;23;20024;-80
2023/03/30 08:10:52;;;;;;;28.45;4.88;;;12.10;99.90;;;;;;6237832;23;20015;-78
2023/03/30 08:13:18;;;;;;;20.40;3.50;;;12.00;99.90;;;;;;6230144;23;20020;-80
2023/03/30 08:15:45;;;;;;;27.58;4.43;;;12.00;99.90;;;;;;6198753;23;20008;-80
2023/03/30 08:18:11;;;;;;;26.17;3.83;;;11.90;99.90;;;;;;6221699;23;20342;-79
2023/03/30 08:20:38;;;;;;;23.35;3.97;;;11.80;99.90;;;;;;6221464;23;20062;-79
2023/03/30 08:23:05;;;;;;;20.63;3.55;;;11.70;99.90;;;;;;6220710;23;20024;-79
2023/03/30 08:25:31;;;;;;;24.27;4.35;;;11.70;99.90;;;;;;6220802;23;20038;-80
2023/03/30 08:27:56;;;;;;;26.52;4.22;;;11.70;99.90;;;;;;6221210;23;20016;-80
2023/03/30 08:30:22;;;;;;;23.63;5.00;;;11.70;99.90;;;;;;6220752;22;20027;-77
2023/03/30 08:32:48;;;;;;;25.73;3.92;;;11.70;99.90;;;;;;6220159;23;20024;-78
2023/03/30 08:35:14;;;;;;;28.00;4.50;;;11.70;99.90;;;;;;6247576;23;20012;-79
2023/03/30 08:37:39;;;;;;;27.15;5.15;;;11.70;99.90;;;;;;6248080;23;20034;-79
2023/03/30 08:40:08;;;;;;;22.58;4.40;;;11.80;99.90;;;;;;6220468;23;20066;-79
2023/03/30 08:43:05;;;;;;;26.35;4.25;;;11.80;99.90;;;;;;6247628;22;20012;-79
2023/03/30 08:45:38;;;;;;;23.98;3.67;;;11.90;99.90;;;;;;6220358;23;20061;-79
2023/03/30 08:48:16;;;;;;;23.20;3.97;;;12.00;99.90;;;;;;6220406;23;20023;-78
2023/03/30 08:50:57;;;;;;;23.98;4.07;;;12.00;99.90;;;;;;6220650;23;20050;-80
2023/03/30 08:53:23;;;;;;;35.88;4.70;;;12.10;99.90;;;;;;6246742;23;20084;-79
2023/03/30 08:56:09;;;;;;;27.02;4.10;;;12.10;99.90;;;;;;6248306;23;20138;-78
2023/03/30 08:58:48;;;;;;;28.15;4.45;;;12.10;99.90;;;;;;6220115;23;20016;-78
2023/03/30 09:01:40;;;;;;;25.52;3.67;;;12.20;99.90;;;;;;6220160;23;20023;-78
2023/03/30 09:04:32;;;;;;;29.13;4.53;;;12.40;99.90;;;;;;6177989;23;20027;-79
2023/03/30 09:07:11;;;;;;;19.75;3.88;;;12.40;99.90;;;;;;6195075;23;20013;-79
2023/03/30 09:09:43;;;;;;;22.42;3.47;;;12.40;99.90;;;;;;6219843;23;20087;-77
2023/03/30 09:12:30;;;;;;;19.70;3.47;;;12.50;99.90;;;;;;6220837;23;20099;-77
2023/03/30 09:15:21;;;;;;;23.55;3.55;;;12.50;99.90;;;;;;6220773;23;20019;-78
2023/03/30 09:18:18;;;;;;;22.13;3.95;;;12.50;99.90;;;;;;6204320;23;20012;-77
2023/03/30 09:20:47;;;;;;;17.08;2.92;;;12.60;99.90;;;;;;6213852;23;20012;-81
2023/03/30 09:23:15;;;;;;;27.17;4.10;;;12.70;99.90;;;;;;6247474;23;20070;-79
2023/03/30 09:25:57;;;;;;;22.73;3.58;;;12.70;99.90;;;;;;6247709;23;20016;-81
2023/03/30 09:28:54;;;;;;;24.10;4.35;;;12.70;99.90;;;;;;6220485;23;20031;-79
2023/03/30 09:31:30;;;;;;;18.25;3.25;;;12.70;99.90;;;;;;6220175;23;20087;-78
2023/03/30 09:34:18;;;;;;;21.10;4.07;;;12.80;99.90;;;;;;6219626;23;20035;-79
2023/03/30 09:37:05;;;;;;;15.75;3.35;;;12.80;99.90;;;;;;6247658;23;20442;-79
2023/03/30 09:39:38;;;;;;;18.85;3.50;;;12.70;99.90;;;;;;6219632;23;20027;-78
2023/03/30 09:42:26;;;;;;;21.08;3.70;;;12.70;99.90;;;;;;6247295;22;20437;-79
2023/03/30 09:45:23;;;;;;;17.73;3.35;;;12.70;99.90;;;;;;6220356;23;20444;-79
2023/03/30 09:47:49;;;;;;;13.02;2.58;;;12.80;99.90;;;;;;6247431;23;20438;-78
2023/03/30 09:50:18;;;;;;;20.42;3.28;;;12.90;99.90;;;;;;6196592;22;20012;-80
2023/03/30 09:53:00;;;;;;;22.25;3.63;;;13.00;99.90;;;;;;6247782;23;20147;-81
2023/03/30 09:55:30;;;;;;;13.65;3.25;;;13.00;99.90;;;;;;6219548;23;20047;-79
2023/03/30 09:58:20;;;;;;;18.05;3.38;;;12.90;99.90;;;;;;6221287;23;20008;-80
2023/03/30 10:00:59;;;;;;;18.58;3.47;;;12.90;99.90;;;;;;6246810;22;20012;-76
2023/03/30 10:03:26;;;;;;;18.67;2.97;;;12.90;99.90;;;;;;6246619;23;20012;-79
2023/03/30 10:06:14;;;;;;;17.05;2.55;;;12.90;99.90;;;;;;6219678;23;20066;-79
2023/03/30 10:08:52;;;;;;;16.45;3.85;;;12.90;99.90;;;;;;6194564;23;20444;-79
2023/03/30 10:11:39;;;;;;;14.05;2.83;;;12.90;99.90;;;;;;6246712;22;20016;-80
2023/03/30 10:14:10;;;;;;;20.45;2.40;;;12.90;99.90;;;;;;6220299;23;20020;-80
2023/03/30 10:16:36;;;;;;;19.08;3.50;;;13.00;99.90;;;;;;6219979;23;20091;-78
2023/03/30 10:19:06;;;;;;;23.23;3.70;;;13.00;99.90;;;;;;6195043;23;20047;-81
2023/03/30 10:21:40;;;;;;;18.35;4.10;;;13.00;99.90;;;;;;6194697;23;20012;-80
2023/03/30 10:24:21;;;;;;;16.55;3.10;;;13.10;99.90;;;;;;6220152;23;20024;-80
2023/03/30 10:26:54;;;;;;;18.75;3.35;;;13.10;99.90;;;;;;6221899;23;20012;-80
2023/03/30 10:29:22;;;;;;;16.25;3.13;;;13.10;99.90;;;;;;6222163;23;20082;-78
2023/03/30 10:32:07;;;;;;;17.52;2.42;;;13.20;99.90;;;;;;6222501;23;20020;-78
2023/03/30 10:34:43;;;;;;;11.50;2.45;;;13.10;99.90;;;;;;6248915;23;20023;-78
2023/03/30 10:37:17;;;;;;;21.48;3.35;;;13.20;99.90;;;;;;6249134;23;20079;-78
2023/03/30 10:39:45;;;;;;;16.55;3.05;;;13.30;99.90;;;;;;6249223;23;20015;-81
2023/03/30 10:42:16;;;;;;;20.70;3.20;;;13.40;99.90;;;;;;6221501;23;20041;-77
2023/03/30 10:45:03;;;;;;;21.52;3.67;;;13.50;99.90;;;;;;6221825;23;20009;-80
2023/03/30 10:48:01;;;;;;;20.25;3.90;;;13.50;99.90;;;;;;6221412;23;20369;-79
2023/03/30 10:50:52;;;;;;;19.52;4.30;;;13.60;99.90;;;;;;6220817;22;20016;-79
2023/03/30 10:53:32;;;;;;;25.98;5.07;;;13.50;99.90;;;;;;6230849;23;20016;-79
2023/03/30 10:56:16;;;;;;;19.00;3.47;;;13.60;99.90;;;;;;6248681;23;20056;-78
2023/03/30 10:59:00;;;;;;;18.30;4.43;;;13.60;99.90;;;;;;6221117;23;20055;-77
2023/03/30 11:01:41;;;;;;;15.18;3.10;;;13.70;99.90;;;;;;6221465;23;20092;-76
2023/03/30 11:04:15;;;;;;;22.73;3.78;;;13.70;99.90;;;;;;6221759;23;20442;-78
2023/03/30 11:06:43;;;;;;;20.63;3.38;;;13.80;99.90;;;;;;6222283;23;20027;-80
2023/03/30 11:09:15;;;;;;;25.77;4.22;;;13.90;99.90;;;;;;6248888;23;20042;-77
2023/03/30 11:11:48;;;;;;;23.45;4.90;;;14.00;99.90;;;;;;6222079;23;20050;-78
2023/03/30 11:14:42;;;;;;;23.05;3.15;;;14.10;99.90;;;;;;6196601;23;20012;-80
2023/03/30 11:17:21;;;;;;;19.08;2.90;;;14.20;99.90;;;;;;6248584;23;20004;-77
2023/03/30 11:19:54;;;;;;;25.67;3.63;;;14.30;99.90;;;;;;6196583;23;20012;-79
2023/03/30 11:22:26;;;;;;;22.13;3.67;;;14.30;99.90;;;;;;6248085;22;20429;-78
2023/03/30 11:24:54;;;;;;;20.95;4.18;;;14.30;99.90;;;;;;6248430;23;20050;-79
2023/03/30 11:27:43;;;;;;;21.33;3.55;;;14.30;99.90;;;;;;6220892;23;20016;-77
2023/03/30 11:30:32;;;;;;;24.90;3.58;;;14.40;99.90;;;;;;6221423;23;20012;-79
2023/03/30 11:33:04;;;;;;;14.98;3.53;;;14.30;99.90;;;;;;6209967;23;20087;-79
2023/03/30 11:36:12;;;;;;;26.60;4.80;;;14.20;99.90;;;;;;6221174;23;20050;-78
2023/03/30 11:38:50;;;;;;;24.90;4.20;;;14.10;99.90;;;;;;6101339;23;20072;-76
2023/03/30 11:41:34;;;;;;;27.10;3.90;;;14.20;99.90;;;;;;6207279;23;20012;-79
2023/03/30 11:44:00;;;;;;;20.98;3.97;;;14.30;99.90;;;;;;6220638;23;20065;-76
2023/03/30 11:46:44;;;;;;;29.13;4.50;;;14.40;99.90;;;;;;6221013;23;20087;-78
2023/03/30 11:49:23;;;;;;;24.65;3.88;;;14.30;99.90;;;;;;6248166;23;20018;-76
2023/03/30 11:52:06;;;;;;;23.52;4.15;;;14.50;99.90;;;;;;6221723;23;20022;-79
2023/03/30 11:54:58;;;;;;;22.00;3.72;;;14.60;99.90;;;;;;6246982;23;20044;-77
2023/03/30 11:57:27;;;;;;;30.90;4.50;;;14.70;99.90;;;;;;6246391;23;20035;-78
2023/03/30 12:00:26;;;;;;;29.73;5.32;;;14.70;99.90;;;;;;6220605;23;20448;-78
2023/03/30 12:03:20;;;;;;;23.02;5.10;;;14.50;99.90;;;;;;6219865;23;20016;-82
2023/03/30 12:05:58;;;;;;;21.70;4.20;;;14.60;99.90;;;;;;6154121;23;20019;-83
2023/03/30 12:08:53;;;;;;;25.15;6.47;;;14.70;99.90;;;;;;6220181;23;20016;-77
2023/03/30 12:11:40;;;;;;;26.90;4.80;;;14.80;99.90;;;;;;6246834;22;20338;-77
2023/03/30 12:14:24;;;;;;;21.90;3.78;;;14.80;99.90;;;;;;6219889;23;20449;-78
2023/03/30 12:16:55;;;;;;;32.03;4.55;;;14.80;99.90;;;;;;6246778;23;20091;-84
2023/03/30 12:19:29;;;;;;;29.35;4.93;;;14.80;99.90;;;;;;6247065;23;20008;-76
2023/03/30 12:22:03;;;;;;;25.08;4.30;;;14.70;99.90;;;;;;6170037;23;20047;-78
2023/03/30 12:24:37;;;;;;;22.65;4.82;;;14.70;99.90;;;;;;6246803;23;20039;-77
2023/03/30 12:27:03;;;;;;;19.95;3.90;;;14.70;99.90;;;;;;6247342;23;20016;-77
2023/03/30 12:29:50;;;;;;;30.23;5.22;;;14.80;99.90;;;;;;6246399;23;20008;-75
2023/03/30 12:32:29;;;;;;;20.65;3.72;;;15.10;99.90;;;;;;6246619;22;20464;-76
2023/03/30 12:34:56;;;;;;;32.75;5.55;;;15.30;99.90;;;;;;6246539;23;20024;-76
2023/03/30 12:37:29;;;;;;;25.80;5.47;;;15.40;99.90;;;;;;6219934;23;20016;-75
2023/03/30 12:40:04;;;;;;;27.42;5.22;;;15.30;99.90;;;;;;6219771;23;20016;-78
2023/03/30 12:42:35;;;;;;;30.95;5.22;;;15.00;99.90;;;;;;6246838;22;20329;-76
2023/03/30 12:45:04;;;;;;;35.10;6.00;;;14.90;99.90;;;;;;6220576;23;20022;-76
2023/03/30 12:48:07;;;;;;;24.73;5.07;;;14.90;99.90;;;;;;6219488;23;20031;-76
2023/03/30 12:50:33;;;;;;;27.85;4.90;;;15.20;99.90;;;;;;6219531;22;20012;-76
2023/03/30 12:53:20;;;;;;;29.83;4.85;;;14.90;99.90;;;;;;6194535;23;20027;-77
2023/03/30 12:56:03;;;;;;;21.67;4.20;;;14.80;99.90;;;;;;6246393;23;20385;-77
2023/03/30 12:58:45;;;;;;;26.10;5.32;;;14.50;99.90;;;;;;6246301;23;20012;-77
2023/03/30 13:01:47;;;;;;;22.55;3.72;;;14.60;99.90;;;;;;6219323;23;20012;-78
2023/03/30 13:04:17;;;;;;;18.52;3.58;;;14.90;99.90;;;;;;6194786;23;20016;-77
2023/03/30 13:07:00;;;;;;;31.33;4.40;;;14.90;99.90;;;;;;6219432;23;20015;-76
2023/03/30 13:09:26;;;;;;;27.40;4.07;;;14.80;99.90;;;;;;6246144;23;20019;-78
2023/03/30 13:11:52;;;;;;;28.85;4.97;;;14.50;99.90;;;;;;6219230;23;20016;-79
2023/03/30 13:14:30;;;;;;;30.00;4.53;;;14.50;99.90;;;;;;6246409;23;20376;-77
2023/03/30 13:16:59;;;;;;;26.55;4.45;;;14.40;99.90;;;;;;6246579;23;20081;-78
2023/03/30 13:19:31;;;;;;;27.17;4.05;;;14.40;99.90;;;;;;6219167;23;20044;-78
2023/03/30 13:22:11;;;;;;;21.80;3.80;;;14.50;99.90;;;;;;6246954;22;20020;-78
2023/03/30 13:25:02;;;;;;;22.77;4.90;;;14.70;99.90;;;;;;6219530;23;20016;-76
2023/03/30 13:27:36;;;;;;;32.58;4.63;;;14.70;99.90;;;;;;6246433;23;20019;-77
2023/03/30 13:30:07;;;;;;;28.33;3.70;;;14.70;99.90;;;;;;6219884;23;20031;-76
2023/03/30 13:32:57;;;;;;;21.52;3.92;;;14.80;99.90;;;;;;6219915;23;20016;-78
2023/03/30 13:35:44;;;;;;;24.17;4.40;;;14.70;99.90;;;;;;6195621;23;20341;-79
2023/03/30 13:38:16;;;;;;;26.50;4.20;;;14.90;99.90;;;;;;6261126;23;20023;-73
2023/03/30 13:41:00;;;;;;;25.65;3.67;;;15.00;99.90;;;;;;6235432;23;20091;-73
2023/03/30 13:44:02;;;;;;;24.30;5.07;;;14.90;99.90;;;;;;6223543;23;20044;-77
2023/03/30 13:46:42;;;;;;;27.58;4.32;;;15.00;99.90;;;;;;6220209;23;20022;-77
2023/03/30 13:49:35;;;;;;;28.45;5.20;;;14.90;99.90;;;;;;6219885;23;20101;-77
2023/03/30 13:52:15;;;;;;;26.35;4.40;;;14.70;99.90;;;;;;6220436;23;20023;-77
2023/03/30 13:54:41;;;;;;;25.60;4.70;;;14.70;99.90;;;;;;6247710;23;20018;-77
2023/03/30 13:57:16;;;;;;;24.55;4.90;;;14.70;99.90;;;;;;6247477;23;20331;-78
2023/03/30 13:59:53;;;;;;;31.80;5.55;;;14.80;99.90;;;;;;6219651;23;20027;-78
2023/03/30 14:02:21;;;;;;;28.08;4.95;;;14.60;99.90;;;;;;6220181;23;20012;-78
2023/03/30 14:04:48;;;;;;;27.88;4.50;;;14.40;99.90;;;;;;6246965;23;20496;-79
2023/03/30 14:07:22;;;;;;;25.17;4.05;;;14.40;99.90;;;;;;6220148;23;20024;-78
2023/03/30 14:10:21;;;;;;;28.00;4.60;;;14.40;99.90;;;;;;6219716;23;20016;-75
2023/03/30 14:12:50;;;;;;;26.67;4.30;;;14.50;99.90;;;;;;6179198;23;20016;-78
2023/03/30 14:15:32;;;;;;;29.05;4.07;;;14.50;99.90;;;;;;6246722;23;20009;-77
2023/03/30 14:18:00;;;;;;;29.38;4.75;;;14.40;99.90;;;;;;6221004;23;20074;-77
2023/03/30 14:20:53;;;;;;;23.92;4.25;;;14.40;99.90;;;;;;6219342;22;20445;-77
2023/03/30 14:23:38;;;;;;;25.90;4.57;;;14.40;99.90;;;;;;6219968;23;20015;-78
2023/03/30 14:26:15;;;;;;;22.48;3.50;;;14.30;99.90;;;;;;6247055;23;20501;-78
2023/03/30 14:28:41;;;;;;;28.48;4.07;;;14.20;99.90;;;;;;6221157;23;20019;-79
2023/03/30 14:31:16;;;;;;;33.25;5.53;;;14.10;99.90;;;;;;6247026;22;20016;-78
2023/03/30 14:33:42;;;;;;;29.15;5.55;;;14.10;99.90;;;;;;6219894;23;20020;-76
2023/03/30 14:36:11;;;;;;;30.27;4.80;;;14.10;99.90;;;;;;6219784;23;20012;-77
2023/03/30 14:38:46;;;;;;;31.42;4.63;;;14.10;99.90;;;;;;6246679;23;20008;-76
2023/03/30 14:41:26;;;;;;;29.27;4.50;;;14.10;99.90;;;;;;6247154;22;20131;-76
2023/03/30 14:43:59;;;;;;;29.00;5.63;;;14.10;99.90;;;;;;6219630;23;20012;-77
2023/03/30 14:46:31;;;;;;;35.33;4.65;;;14.20;99.90;;;;;;6220218;23;20026;-75
2023/03/30 14:48:56;;;;;;;30.92;5.25;;;14.40;99.90;;;;;;6220519;23;20048;-78
2023/03/30 14:51:36;;;;;;;32.42;5.05;;;14.40;99.90;;;;;;6219641;23;20426;-78
2023/03/30 14:54:02;;;;;;;24.33;5.70;;;14.40;99.90;;;;;;6219800;23;20015;-78
2023/03/30 14:56:29;;;;;;;30.67;5.85;;;14.40;99.90;;;;;;6246641;23;20492;-77
2023/03/30 14:58:56;;;;;;;34.30;5.03;;;14.40;99.90;;;;;;6246503;23;20079;-79
2023/03/30 15:01:29;;;;;;;25.80;4.53;;;14.40;99.90;;;;;;6246656;22;20008;-76
2023/03/30 15:04:16;;;;;;;30.75;4.90;;;14.50;99.90;;;;;;6246733;23;20031;-77
2023/03/30 15:06:44;;;;;;;30.75;4.82;;;14.50;99.90;;;;;;6219030;23;20450;-77
2023/03/30 15:09:16;;;;;;;26.75;4.82;;;14.40;99.90;;;;;;6219554;23;20454;-79
2023/03/30 15:11:49;;;;;;;32.15;4.70;;;14.50;99.90;;;;;;6246811;22;20047;-76
2023/03/30 15:14:18;;;;;;;26.98;4.97;;;14.60;99.90;;;;;;6249091;23;20338;-77
2023/03/30 15:16:46;;;;;;;30.05;5.30;;;14.60;99.90;;;;;;6221479;23;20008;-77
2023/03/30 15:19:30;;;;;;;31.65;5.35;;;14.50;99.90;;;;;;6221833;23;20024;-76
2023/03/30 15:22:18;;;;;;;33.17;5.93;;;14.40;99.90;;;;;;6196076;23;20134;-79
2023/03/30 15:24:44;;;;;;;29.40;4.60;;;14.30;99.90;;;;;;6227158;23;20008;-79
2023/03/30 15:27:15;;;;;;;27.25;4.35;;;14.40;99.90;;;;;;6221110;23;20012;-77
2023/03/30 15:29:41;;;;;;;30.88;4.60;;;14.50;99.90;;;;;;6196002;23;20154;-78
2023/03/30 15:32:14;;;;;;;40.08;6.22;;;14.60;99.90;;;;;;6222806;23;20020;-75
2023/03/30 15:35:13;;;;;;;38.60;5.80;;;14.50;99.90;;;;;;6248872;23;20012;-78
2023/03/30 15:37:55;;;;;;;32.65;5.10;;;14.40;99.90;;;;;;6248296;23;20434;-79
2023/03/30 15:40:31;;;;;;;29.60;5.70;;;14.30;99.90;;;;;;6248722;22;20027;-77
2023/03/30 15:43:11;;;;;;;23.20;4.22;;;14.20;99.90;;;;;;6221476;23;20016;-79
2023/03/30 15:45:37;;;;;;;34.55;5.53;;;14.10;99.90;;;;;;6221314;23;20047;-78
2023/03/30 15:48:05;;;;;;;32.35;5.40;;;14.10;99.90;;;;;;6221815;23;20023;-78
2023/03/30 15:50:35;;;;;;;26.00;5.00;;;14.10;99.90;;;;;;6248497;22;20012;-78
2023/03/30 15:53:01;;;;;;;26.17;5.13;;;14.00;99.90;;;;;;6221663;23;20047;-77
2023/03/30 15:55:30;;;;;;;33.40;5.80;;;14.00;99.90;;;;;;6222060;23;20024;-75
2023/03/30 15:57:56;;;;;;;27.58;4.43;;;14.00;99.90;;;;;;6248019;23;20016;-77
2023/03/30 16:00:26;;;;;;;34.35;6.10;;;14.10;99.90;;;;;;6247989;22;20062;-77
2023/03/30 16:03:00;;;;;;;31.27;6.43;;;14.00;99.90;;;;;;6248843;23;20016;-78
2023/03/30 16:05:28;;;;;;;23.98;4.47;;;14.00;99.90;;;;;;6248556;23;20082;-76
2023/03/30 16:07:54;;;;;;;24.27;3.35;;;13.80;99.90;;;;;;6221264;23;20343;-76